Flight Track Log - Related Links

Times and Time Zones

All times are in EDT time to prevent confusion due to time zone crossing. See the EJA304 flight status page for this flight to view local times or setup timezone preferences in your user account.

Time Position Orientation Groundspeed Altitude Reporting Facility
EDT Latitude Longitude Course Direction KTS MPH feet Rate Location/Type
Wed 09:46:08 PM 29.9778 -95.3517 332° Northwest 143 165 200  Level FlightAware ADS-B
Wed 09:46:21 PM 29.9697 -95.3467 152° Southeast 150 173 700 2,667 Climbing FlightAware ADS-B
Wed 09:46:26 PM 29.9665 -95.3455 162° South 150 173 1,000 3,333 Climbing FlightAware ADS-B
Wed 09:46:30 PM 29.9632 -95.3452 175° South 152 175 1,200 2,667 Climbing FlightAware ADS-B
Wed 09:46:35 PM 29.9602 -95.3455 185° South 156 180 1,400 2,667 Climbing FlightAware ADS-B
Wed 09:46:39 PM 29.9572 -95.3466 198° South 159 183 1,600 3,600 Climbing FlightAware ADS-B
Wed 09:46:40 PM 29.9561 -95.3472 206° Southwest 162 186 1,700 3,000 Climbing FlightAware ADS-B
Wed 09:46:43 PM 29.9544 -95.3484 211° Southwest 163 188 1,800 3,000 Climbing FlightAware ADS-B
Wed 09:46:50 PM 29.9502 -95.3525 220° Southwest 169 194 2,200 3,000 Climbing FlightAware ADS-B
Wed 09:46:55 PM 29.9475 -95.3558 227° Southwest 176 203 2,400 2,800 Climbing FlightAware ADS-B
Wed 09:47:05 PM 29.9415 -95.3634 227° Southwest 187 215 2,900 2,348 Climbing FlightAware ADS-B
Wed 09:47:18 PM 29.9333 -95.3737 228° Southwest 199 229 3,300 1,600 Climbing FlightAware ADS-B
Wed 09:47:20 PM 29.9322 -95.3752 229° Southwest 213 245 3,300 1,714 Level FlightAware ADS-B
Wed 09:47:32 PM 29.9242 -95.3856 228° Southwest 224 258 3,700 2,700 Climbing FlightAware ADS-B
Wed 09:47:40 PM 29.9184 -95.3935 229° Southwest 229 264 4,200 3,231 Climbing FlightAware ADS-B
Wed 09:47:45 PM 29.9156 -95.3974 231° Southwest 231 266 4,400 2,700 Climbing FlightAware ADS-B
Wed 09:48:00 PM 29.9050 -95.4122 230° Southwest 240 276 5,100 2,769 Climbing FlightAware ADS-B
Wed 09:48:11 PM 29.8969 -95.4230 229° Southwest 247 284 5,600 2,667 Climbing FlightAware ADS-B
Wed 09:48:18 PM 29.8921 -95.4307 234° Southwest 250 288 5,900 3,000 Climbing FlightAware ADS-B
Wed 09:48:21 PM 29.8906 -95.4345 246° West 252 290 6,100 3,429 Climbing FlightAware ADS-B
Wed 09:48:32 PM 29.8870 -95.4488 254° West 256 295 6,700 3,333 Climbing FlightAware ADS-B
Wed 09:48:39 PM 29.8856 -95.4584 260° West 259 298 7,100 3,200 Climbing FlightAware ADS-B
Wed 09:48:47 PM 29.8857 -95.4700 271° West 264 304 7,500 3,000 Climbing FlightAware ADS-B
Wed 09:48:51 PM 29.8865 -95.4753 280° West 268 308 7,700 3,000 Climbing FlightAware ADS-B
Wed 09:48:55 PM 29.8877 -95.4805 285° West 271 312 7,900 3,750 Climbing FlightAware ADS-B
Wed 09:48:59 PM 29.8895 -95.4874 287° West 270 311 8,200 3,176 Climbing FlightAware ADS-B
Wed 09:49:12 PM 29.8942 -95.5051 287° West 270 311 8,800 2,700 Climbing FlightAware ADS-B
Wed 09:49:19 PM 29.8964 -95.5137 286° West 272 313 9,100 2,750 Climbing FlightAware ADS-B
Wed 09:49:36 PM 29.9027 -95.5378 287° West 273 314 9,900 2,903 Climbing FlightAware ADS-B
Wed 09:49:50 PM 29.9082 -95.5581 287° West 278 320 10,600 2,400 Climbing FlightAware ADS-B
Wed 09:50:06 PM 29.9145 -95.5807 288° West 283 326 11,100 1,957 Climbing FlightAware ADS-B
Wed 09:50:36 PM 29.9269 -95.6250 288° West 299 344 12,100 2,164 Climbing FlightAware ADS-B
Wed 09:51:07 PM 29.9402 -95.6721 288° West 303 349 13,300 2,164 Climbing FlightAware ADS-B
Wed 09:51:37 PM 29.9535 -95.7195 288° West 309 356 14,300 1,662 Climbing FlightAware ADS-B
Wed 09:52:12 PM 29.9639 -95.7556 286° West 304 350 15,100 1,625 Climbing Houston Center
Wed 09:54:00 PM 30.0267 -95.9448 276° West  Level Estimated
Wed 09:55:00 PM 30.0587 -96.0399 291° West  Level Estimated
Wed 09:56:00 PM 30.0788 -96.1474 278° West  Level FlightAware Approximate
Wed 09:57:00 PM 30.0871 -96.2484 286° West  Level FlightAware Approximate
Wed 09:57:24 PM 30.1020 -96.2976 286° West 333 383 23,700  Level FlightAware ADS-B
Wed 09:57:54 PM 30.1051 -96.3513 274° West 333 383 24,300 1,200 Climbing FlightAware ADS-B
Wed 09:58:24 PM 30.1086 -96.4047 274° West 332 382 24,900 1,286 Climbing FlightAware ADS-B
Wed 09:58:50 PM 30.1119 -96.4494 275° West 332 382 25,500 1,286 Climbing FlightAware ADS-B
Wed 09:59:20 PM 30.1160 -96.5024 275° West 332 382 26,100 1,300 Climbing FlightAware ADS-B
Wed 09:59:50 PM 30.1203 -96.5563 275° West 332 382 26,800 1,300 Climbing FlightAware ADS-B
Wed 10:00:20 PM 30.1247 -96.6097 275° West 333 383 27,400 1,200 Climbing FlightAware ADS-B
Wed 10:00:50 PM 30.1288 -96.6623 275° West 336 387 28,000 1,100 Climbing FlightAware ADS-B
Wed 10:01:20 PM 30.1326 -96.7164 275° West 340 391 28,500 1,000 Climbing FlightAware ADS-B
Wed 10:01:50 PM 30.1362 -96.7717 274° West 343 395 29,000 1,000 Climbing FlightAware ADS-B
Wed 10:02:20 PM 30.1396 -96.8270 274° West 346 398 29,500 984 Climbing FlightAware ADS-B
Wed 10:02:51 PM 30.1427 -96.8829 274° West 350 403 30,000 968 Climbing FlightAware ADS-B
Wed 10:03:22 PM 30.1457 -96.9412 273° West 353 406 30,500 984 Climbing FlightAware ADS-B
Wed 10:03:52 PM 30.1483 -96.9984 273° West 353 406 31,000 1,000 Climbing FlightAware ADS-B
Wed 10:04:22 PM 30.1504 -97.0555 272° West 353 406 31,500 1,082 Climbing FlightAware ADS-B
Wed 10:04:53 PM 30.1526 -97.1132 273° West 354 407 32,100 1,082 Climbing FlightAware ADS-B
Wed 10:05:23 PM 30.1547 -97.1702 272° West 354 407 32,600 923 Climbing FlightAware ADS-B
Wed 10:05:32 PM 30.1553 -97.1873 272° West 354 407 32,700 968 Climbing FlightAware ADS-B
Wed 10:05:54 PM 30.1568 -97.2279 272° West 354 407 33,100 1,029 Climbing FlightAware ADS-B
Wed 10:06:07 PM 30.1580 -97.2532 273° West 354 407 33,300 1,000 Climbing FlightAware ADS-B
Wed 10:06:24 PM 30.1606 -97.2854 275° West 355 409 33,600 968 Climbing FlightAware ADS-B
Wed 10:06:38 PM 30.1631 -97.3108 277° West 354 407 33,800 1,000 Climbing FlightAware ADS-B
Wed 10:06:54 PM 30.1665 -97.3422 277° West 355 409 34,100 1,000 Climbing FlightAware ADS-B
Wed 10:07:08 PM 30.1693 -97.3675 277° West 355 409 34,300 1,000 Climbing FlightAware ADS-B
Wed 10:07:24 PM 30.1728 -97.3989 277° West 354 407 34,600 1,000 Climbing FlightAware ADS-B
Wed 10:07:50 PM 30.1785 -97.4475 278° West 354 407 35,000 968 Climbing FlightAware ADS-B
Wed 10:07:55 PM 30.1794 -97.4554 278° West 355 409 35,100 857 Climbing FlightAware ADS-B
Wed 10:08:18 PM 30.1849 -97.4999 278° West 356 410 35,400 857 Climbing FlightAware ADS-B
Wed 10:08:23 PM 30.1864 -97.5088 281° West 355 409 35,500 1,125 Climbing FlightAware ADS-B
Wed 10:08:50 PM 30.1969 -97.5592 284° West 357 411 36,000 1,000 Climbing FlightAware ADS-B
Wed 10:08:53 PM 30.1981 -97.5649 284° West 358 412 36,000  Level FlightAware ADS-B
Wed 10:09:21 PM 30.2090 -97.6168 284° West 368 423 36,000  Level FlightAware ADS-B
Wed 10:09:24 PM 30.2103 -97.6228 284° West 370 426 36,000  Level FlightAware ADS-B
Wed 10:09:31 PM 30.2134 -97.6365 285° West 374 430 36,000  Level FlightAware ADS-B
Wed 10:09:36 PM 30.2162 -97.6468 287° West 378 435 36,000  Level FlightAware ADS-B
Wed 10:10:02 PM 30.2310 -97.6961 289° West 384 442 36,000  Level FlightAware ADS-B
Wed 10:10:07 PM 30.2340 -97.7062 289° West 385 443 36,000  Level FlightAware ADS-B
Wed 10:10:33 PM 30.2495 -97.7578 289° West 389 448 36,000  Level FlightAware ADS-B
Wed 10:10:37 PM 30.2518 -97.7657 289° West 389 448 36,000  Level FlightAware ADS-B
Wed 10:11:03 PM 30.2666 -97.8153 289° West 395 455 36,000  Level FlightAware ADS-B
Wed 10:11:42 PM 30.2976 -97.8928 295° West 398 458 36,000  Level FlightAware ADS-B
Wed 10:12:03 PM 30.3146 -97.9342 295° West 408 470 36,000  Level FlightAware ADS-B
Wed 10:12:14 PM 30.3230 -97.9547 295° West 408 470 36,000  Level FlightAware ADS-B
Wed 10:12:40 PM 30.3440 -98.0066 295° West 408 470 36,000  Level FlightAware ADS-B
Wed 10:12:44 PM 30.3474 -98.0150 295° West 409 471 36,000  Level FlightAware ADS-B
Wed 10:13:10 PM 30.3683 -98.0666 295° West 410 472 36,000  Level FlightAware ADS-B
Wed 10:13:14 PM 30.3716 -98.0748 295° West 410 472 36,000  Level FlightAware ADS-B
Wed 10:13:45 PM 30.3960 -98.1354 295° West 407 468 36,000  Level FlightAware ADS-B
Wed 10:13:54 PM 30.4039 -98.1549 295° West 406 467 36,000  Level FlightAware ADS-B
Wed 10:14:15 PM 30.4204 -98.1961 295° West 402 463 36,000  Level FlightAware ADS-B
Wed 10:14:29 PM 30.4311 -98.2228 295° West 401 461 36,000  Level FlightAware ADS-B
Wed 10:14:56 PM 30.4521 -98.2751 295° West 400 460 36,000  Level FlightAware ADS-B
Wed 10:15:41 PM 30.4870 -98.3622 295° West 399 459 36,000  Level FlightAware ADS-B
Wed 10:16:07 PM 30.5067 -98.4116 295° West 396 456 36,000  Level FlightAware ADS-B
Wed 10:16:12 PM 30.5105 -98.4212 295° West 396 456 36,000  Level FlightAware ADS-B
Wed 10:16:59 PM 30.5465 -98.5112 295° West 396 456 36,000  Level FlightAware ADS-B
Wed 10:17:07 PM 30.5533 -98.5282 295° West 396 456 36,000  Level FlightAware ADS-B
Wed 10:17:29 PM 30.5696 -98.5692 295° West 395 455 36,000  Level FlightAware ADS-B
Wed 10:18:01 PM 30.5946 -98.6322 295° West 395 455 36,000  Level FlightAware ADS-B
Wed 10:19:00 PM 30.6395 -98.7456 295° West 396 456 36,000  Level FlightAware ADS-B
Wed 10:20:31 PM 30.7086 -98.9206 295° West 396 456 36,000  Level FlightAware ADS-B
Wed 10:21:10 PM 30.7389 -98.9974 295° West 396 456 36,000  Level FlightAware ADS-B
Wed 10:21:43 PM 30.7553 -99.0406 295° West 395 455 36,000  Level Houston Center
Wed 10:22:44 PM 30.8014 -99.1592 294° West 396 456 36,000  Level Houston Center
Wed 10:23:45 PM 30.8478 -99.2728 295° West 393 452 36,000  Level Houston Center
Wed 10:24:46 PM 30.8925 -99.3892 294° West 394 453 36,000  Level Houston Center
Wed 10:25:47 PM 30.9369 -99.5056 294° West 395 455 36,000  Level Houston Center
Wed 10:26:48 PM 30.9908 -99.6442 294° West 394 453 36,000  Level Houston Center
Wed 10:27:49 PM 31.0361 -99.7597 295° West 394 453 36,000  Level Houston Center
Wed 10:28:50 PM 31.0792 -99.8744 294° West 388 447 36,000  Level Houston Center
Wed 10:29:51 PM 31.1233 -99.9875 295° West 386 444 36,000  Level Houston Center
Wed 10:30:52 PM 31.1664 -100.1028 294° West 388 447 36,000  Level Houston Center
Wed 10:31:53 PM 31.2103 -100.2164 294° West 386 444 36,000  Level Houston Center
Wed 10:32:54 PM 31.2536 -100.3314 294° West 387 445 36,000  Level Houston Center
Wed 10:33:55 PM 31.2964 -100.4447 294° West 384 442 36,000  Level Houston Center
Wed 10:34:56 PM 31.3383 -100.5581 293° West 383 441 36,000  Level Houston Center
Wed 10:35:44 PM 31.3761 -100.6542 295° West 379 436 36,000  Level Fort Worth Center
Wed 10:36:44 PM 31.4147 -100.7772 290° West 374 430 36,000 -300 Level Fort Worth Center
Wed 10:37:44 PM 31.4492 -100.8931 289° West 374 430 35,400 -1,800 Descending Fort Worth Center
Wed 10:38:44 PM 31.4856 -101.0064 291° West 374 430 32,400 -2,950 Descending Fort Worth Center
Wed 10:39:44 PM 31.5178 -101.1172 289° West 369 425 29,500 -2,700 Descending Fort Worth Center
Wed 10:40:44 PM 31.5497 -101.2356 288° West 382 440 27,000 -2,500 Descending Fort Worth Center
Wed 10:41:44 PM 31.5981 -101.3594 295° West 400 460 24,500 -2,500 Descending Fort Worth Center
Wed 10:42:44 PM 31.6464 -101.4811 295° West 410 472 22,000 -2,500 Descending Fort Worth Center
Wed 10:43:44 PM 31.6967 -101.6006 296° West 405 466 19,500 -2,800 Descending Fort Worth Center
Wed 10:44:44 PM 31.7433 -101.7078 297° West 393 452 16,400 -3,200 Descending Fort Worth Center
Wed 10:45:44 PM 31.7758 -101.7947 294° West 343 395 13,100 -3,550 Descending Fort Worth Center
Wed 10:46:44 PM 31.8128 -101.8672 301° West 295 339 9,300 -3,450 Descending Fort Worth Center
Wed 10:47:44 PM 31.8628 -101.9286 314° West 262 302 6,200 -1,700 Descending Fort Worth Center
Wed 10:48:44 PM 31.9131 -101.9825 318° Northwest 249 287 5,900 -300 Descending Fort Worth Center
Wed 10:49:44 PM 31.9611 -102.0386 315° West 244 281 5,600 -400 Descending Fort Worth Center
Wed 10:50:44 PM 32.0031 -102.0872 316° Northwest 233 268 5,100 -400 Descending Fort Worth Center
Wed 10:51:44 PM 32.0308 -102.1303 307° West 199 229 4,800 -300 Descending Fort Worth Center
Wed 10:52:44 PM 32.0375 -102.1700 281° West 156 180 4,500 -400 Descending Fort Worth Center
Wed 10:53:44 PM 32.0261 -102.2011 247° West 116 133 4,000 -450 Descending Fort Worth Center
Wed 10:54:44 PM 31.9964 -102.2094 193° South 99 114 3,600 -550 Descending Fort Worth Center
Wed 10:55:44 PM 31.9611 -102.2075 177° South 104 120 2,900 -700 Descending Fort Worth Center
Wed 10:58:00 PM 31.9425 -102.2019 203° Southwest  Level Estimated

Login

Don't have an account? Register now (free) for customized features, flight alerts, and more!